Aviation Digital Data Service (ADDS)

Output produced by TAFs form (0902 UTC 30 May 2017)
found at http://www.aviationweather.gov/adds/tafs/
 
METAR text: HECA 300900Z 05014KT CAVOK 32/08 Q1016 NOSIG
Conditions at: HECA (CAIRO INTL AIRPO, EG) observed 0900 UTC 30 May 2017
Temperature: 32.0°C (90°F)
Dewpoint: 8.0°C (46°F) [RH = 23%]
Pressure (altimeter): 30.00 inches Hg (1016.0 mb)
Winds: from the NE (50 degrees) at 16 MPH (14 knots; 7.3 m/s)
Visibility: 6 or more miles (10+ km)
Ceiling: ceiling and visibility are OK
Clouds: unknown
Weather: no significant weather observed at this time

Forecast for: HECA (CAIRO INTL AIRPO, EG)
Text: TAF HECA 300500Z 3006/3112 05010KT CAVOK
Forecast period: 0600 UTC 30 May 2017 to 1200 UTC 31 May 2017
Forecast type: FROM: standard forecast or significant change
Winds: from the NE (50 degrees) at 12 MPH (10 knots; 5.2 m/s)
Visibility: 6 or more miles (10+ km)
Clouds: not forecast
Weather: NSW  (no significant weather)